sensor_id;sensor_type;location;lat;lon;timestamp;P1;durP1;ratioP1;P2;durP2;ratioP2
13356;SDS011;6747;56.456;-3.120;2024-01-27T00:02:17;8.82;;;2.20;;
13356;SDS011;6747;56.456;-3.120;2024-01-27T00:04:45;4.32;;;2.45;;
13356;SDS011;6747;56.456;-3.120;2024-01-27T00:07:12;5.90;;;2.10;;
13356;SDS011;6747;56.456;-3.120;2024-01-27T00:09:39;6.22;;;2.05;;
13356;SDS011;6747;56.456;-3.120;2024-01-27T00:12:07;5.80;;;1.95;;
13356;SDS011;6747;56.456;-3.120;2024-01-27T00:14:37;5.05;;;2.13;;
13356;SDS011;6747;56.456;-3.120;2024-01-27T00:17:05;5.43;;;1.77;;
13356;SDS011;6747;56.456;-3.120;2024-01-27T00:19:34;10.60;;;2.03;;
13356;SDS011;6747;56.456;-3.120;2024-01-27T00:22:02;7.80;;;2.25;;
13356;SDS011;6747;56.456;-3.120;2024-01-27T00:24:29;7.22;;;2.38;;
13356;SDS011;6747;56.456;-3.120;2024-01-27T00:26:57;6.30;;;2.40;;
13356;SDS011;6747;56.456;-3.120;2024-01-27T00:29:24;8.90;;;2.35;;
13356;SDS011;6747;56.456;-3.120;2024-01-27T00:31:52;6.70;;;1.92;;
13356;SDS011;6747;56.456;-3.120;2024-01-27T00:34:21;7.28;;;2.00;;
13356;SDS011;6747;56.456;-3.120;2024-01-27T00:36:50;7.25;;;1.98;;
13356;SDS011;6747;56.456;-3.120;2024-01-27T00:39:17;5.50;;;1.85;;
13356;SDS011;6747;56.456;-3.120;2024-01-27T00:41:45;6.93;;;2.10;;
13356;SDS011;6747;56.456;-3.120;2024-01-27T00:44:12;3.53;;;1.67;;
13356;SDS011;6747;56.456;-3.120;2024-01-27T00:46:40;5.93;;;1.60;;
13356;SDS011;6747;56.456;-3.120;2024-01-27T00:49:07;6.85;;;1.92;;
13356;SDS011;6747;56.456;-3.120;2024-01-27T00:51:35;5.70;;;2.05;;
13356;SDS011;6747;56.456;-3.120;2024-01-27T00:54:04;11.10;;;2.20;;
13356;SDS011;6747;56.456;-3.120;2024-01-27T00:56:31;5.75;;;2.22;;
13356;SDS011;6747;56.456;-3.120;2024-01-27T00:58:59;7.45;;;2.10;;
13356;SDS011;6747;56.456;-3.120;2024-01-27T01:01:26;9.48;;;2.28;;
13356;SDS011;6747;56.456;-3.120;2024-01-27T01:03:54;6.38;;;2.40;;
13356;SDS011;6747;56.456;-3.120;2024-01-27T01:06:21;7.57;;;1.95;;
13356;SDS011;6747;56.456;-3.120;2024-01-27T01:08:49;9.45;;;2.42;;
13356;SDS011;6747;56.456;-3.120;2024-01-27T01:11:18;8.38;;;2.67;;
13356;SDS011;6747;56.456;-3.120;2024-01-27T01:13:45;6.47;;;2.25;;
13356;SDS011;6747;56.456;-3.120;2024-01-27T01:16:13;6.15;;;2.97;;
13356;SDS011;6747;56.456;-3.120;2024-01-27T01:18:40;10.07;;;2.47;;
13356;SDS011;6747;56.456;-3.120;2024-01-27T01:21:08;9.18;;;2.58;;
13356;SDS011;6747;56.456;-3.120;2024-01-27T01:23:35;5.35;;;2.30;;
13356;SDS011;6747;56.456;-3.120;2024-01-27T01:26:03;6.32;;;2.28;;
13356;SDS011;6747;56.456;-3.120;2024-01-27T01:28:32;6.65;;;2.38;;
13356;SDS011;6747;56.456;-3.120;2024-01-27T01:31:00;5.32;;;1.83;;
13356;SDS011;6747;56.456;-3.120;2024-01-27T01:33:27;9.23;;;2.33;;
13356;SDS011;6747;56.456;-3.120;2024-01-27T01:35:55;6.43;;;1.73;;
13356;SDS011;6747;56.456;-3.120;2024-01-27T01:38:22;7.32;;;2.13;;
13356;SDS011;6747;56.456;-3.120;2024-01-27T01:40:49;10.18;;;2.20;;
13356;SDS011;6747;56.456;-3.120;2024-01-27T01:43:17;10.77;;;2.03;;
13356;SDS011;6747;56.456;-3.120;2024-01-27T01:45:46;6.28;;;2.15;;
13356;SDS011;6747;56.456;-3.120;2024-01-27T01:48:15;6.50;;;2.58;;
13356;SDS011;6747;56.456;-3.120;2024-01-27T01:50:43;9.30;;;2.45;;
13356;SDS011;6747;56.456;-3.120;2024-01-27T01:53:11;7.97;;;2.20;;
13356;SDS011;6747;56.456;-3.120;2024-01-27T01:55:39;4.70;;;2.33;;
13356;SDS011;6747;56.456;-3.120;2024-01-27T01:58:07;8.43;;;2.53;;
13356;SDS011;6747;56.456;-3.120;2024-01-27T02:00:34;8.77;;;2.55;;
13356;SDS011;6747;56.456;-3.120;2024-01-27T02:03:03;9.68;;;3.05;;
13356;SDS011;6747;56.456;-3.120;2024-01-27T02:05:31;8.85;;;2.40;;
13356;SDS011;6747;56.456;-3.120;2024-01-27T02:07:59;9.65;;;2.40;;
13356;SDS011;6747;56.456;-3.120;2024-01-27T02:10:29;7.80;;;2.42;;
13356;SDS011;6747;56.456;-3.120;2024-01-27T02:13:01;9.20;;;2.17;;
13356;SDS011;6747;56.456;-3.120;2024-01-27T02:15:29;6.72;;;2.15;;
13356;SDS011;6747;56.456;-3.120;2024-01-27T02:17:57;8.50;;;2.15;;
13356;SDS011;6747;56.456;-3.120;2024-01-27T02:20:26;4.30;;;2.17;;
13356;SDS011;6747;56.456;-3.120;2024-01-27T02:22:53;6.20;;;2.08;;
13356;SDS011;6747;56.456;-3.120;2024-01-27T02:25:22;6.43;;;2.38;;
13356;SDS011;6747;56.456;-3.120;2024-01-27T02:27:50;6.70;;;2.03;;
13356;SDS011;6747;56.456;-3.120;2024-01-27T02:30:17;6.45;;;1.90;;
13356;SDS011;6747;56.456;-3.120;2024-01-27T02:32:45;7.43;;;2.40;;
13356;SDS011;6747;56.456;-3.120;2024-01-27T02:35:12;6.13;;;2.00;;
13356;SDS011;6747;56.456;-3.120;2024-01-27T02:37:41;5.57;;;1.90;;
13356;SDS011;6747;56.456;-3.120;2024-01-27T02:40:09;8.10;;;2.75;;
13356;SDS011;6747;56.456;-3.120;2024-01-27T02:42:38;7.47;;;2.10;;
13356;SDS011;6747;56.456;-3.120;2024-01-27T02:45:07;5.63;;;1.95;;
13356;SDS011;6747;56.456;-3.120;2024-01-27T02:47:34;8.50;;;2.25;;
13356;SDS011;6747;56.456;-3.120;2024-01-27T02:50:02;4.43;;;1.90;;
13356;SDS011;6747;56.456;-3.120;2024-01-27T02:52:31;4.45;;;2.25;;
13356;SDS011;6747;56.456;-3.120;2024-01-27T02:54:58;9.13;;;2.22;;
13356;SDS011;6747;56.456;-3.120;2024-01-27T02:57:26;5.85;;;2.90;;
13356;SDS011;6747;56.456;-3.120;2024-01-27T02:59:55;6.90;;;2.20;;
13356;SDS011;6747;56.456;-3.120;2024-01-27T03:02:23;8.05;;;2.22;;
13356;SDS011;6747;56.456;-3.120;2024-01-27T03:04:50;7.53;;;2.60;;
13356;SDS011;6747;56.456;-3.120;2024-01-27T03:07:17;7.53;;;2.67;;
13356;SDS011;6747;56.456;-3.120;2024-01-27T03:09:45;6.57;;;2.45;;
13356;SDS011;6747;56.456;-3.120;2024-01-27T03:12:12;7.03;;;2.40;;
13356;SDS011;6747;56.456;-3.120;2024-01-27T03:14:40;7.22;;;2.20;;
13356;SDS011;6747;56.456;-3.120;2024-01-27T03:17:09;8.35;;;2.65;;
13356;SDS011;6747;56.456;-3.120;2024-01-27T03:19:37;4.63;;;2.30;;
13356;SDS011;6747;56.456;-3.120;2024-01-27T03:22:04;5.13;;;2.20;;
13356;SDS011;6747;56.456;-3.120;2024-01-27T03:24:32;3.80;;;1.83;;
13356;SDS011;6747;56.456;-3.120;2024-01-27T03:26:59;8.75;;;2.47;;
13356;SDS011;6747;56.456;-3.120;2024-01-27T03:29:26;3.53;;;1.98;;
13356;SDS011;6747;56.456;-3.120;2024-01-27T03:31:54;5.15;;;2.10;;
13356;SDS011;6747;56.456;-3.120;2024-01-27T03:34:23;7.18;;;1.90;;
13356;SDS011;6747;56.456;-3.120;2024-01-27T03:36:52;6.38;;;2.10;;
13356;SDS011;6747;56.456;-3.120;2024-01-27T03:39:19;6.28;;;2.05;;
13356;SDS011;6747;56.456;-3.120;2024-01-27T03:41:47;4.50;;;1.98;;
13356;SDS011;6747;56.456;-3.120;2024-01-27T03:44:14;5.68;;;1.88;;
13356;SDS011;6747;56.456;-3.120;2024-01-27T03:46:42;4.72;;;1.77;;
13356;SDS011;6747;56.456;-3.120;2024-01-27T03:49:09;5.28;;;2.30;;
13356;SDS011;6747;56.456;-3.120;2024-01-27T03:51:38;5.72;;;1.40;;
13356;SDS011;6747;56.456;-3.120;2024-01-27T03:54:06;5.45;;;1.63;;
13356;SDS011;6747;56.456;-3.120;2024-01-27T03:56:33;6.35;;;2.00;;
13356;SDS011;6747;56.456;-3.120;2024-01-27T03:59:01;5.40;;;1.60;;
13356;SDS011;6747;56.456;-3.120;2024-01-27T04:01:28;4.20;;;2.20;;
13356;SDS011;6747;56.456;-3.120;2024-01-27T04:03:56;3.70;;;1.92;;
13356;SDS011;6747;56.456;-3.120;2024-01-27T04:06:23;10.55;;;2.20;;
13356;SDS011;6747;56.456;-3.120;2024-01-27T04:08:52;6.50;;;1.80;;
13356;SDS011;6747;56.456;-3.120;2024-01-27T04:11:20;7.55;;;2.47;;
13356;SDS011;6747;56.456;-3.120;2024-01-27T04:13:48;6.40;;;2.25;;
13356;SDS011;6747;56.456;-3.120;2024-01-27T04:16:16;6.22;;;2.00;;
13356;SDS011;6747;56.456;-3.120;2024-01-27T04:18:43;4.45;;;2.15;;
13356;SDS011;6747;56.456;-3.120;2024-01-27T04:21:10;6.07;;;2.03;;
13356;SDS011;6747;56.456;-3.120;2024-01-27T04:23:38;5.93;;;1.92;;
13356;SDS011;6747;56.456;-3.120;2024-01-27T04:26:07;3.45;;;2.05;;
13356;SDS011;6747;56.456;-3.120;2024-01-27T04:28:35;6.38;;;2.03;;
13356;SDS011;6747;56.456;-3.120;2024-01-27T04:31:03;4.93;;;2.30;;
13356;SDS011;6747;56.456;-3.120;2024-01-27T04:33:30;9.45;;;2.08;;
13356;SDS011;6747;56.456;-3.120;2024-01-27T04:36:01;5.22;;;2.33;;
13356;SDS011;6747;56.456;-3.120;2024-01-27T04:38:28;6.15;;;2.05;;
13356;SDS011;6747;56.456;-3.120;2024-01-27T04:40:55;7.68;;;1.70;;
13356;SDS011;6747;56.456;-3.120;2024-01-27T04:43:24;5.13;;;1.98;;
13356;SDS011;6747;56.456;-3.120;2024-01-27T04:45:52;5.07;;;2.13;;
13356;SDS011;6747;56.456;-3.120;2024-01-27T04:48:19;3.75;;;1.73;;
13356;SDS011;6747;56.456;-3.120;2024-01-27T04:50:47;5.32;;;1.77;;
13356;SDS011;6747;56.456;-3.120;2024-01-27T04:53:16;8.43;;;2.17;;
13356;SDS011;6747;56.456;-3.120;2024-01-27T04:55:43;5.38;;;2.03;;
13356;SDS011;6747;56.456;-3.120;2024-01-27T04:58:10;7.15;;;2.05;;
13356;SDS011;6747;56.456;-3.120;2024-01-27T05:00:40;5.00;;;1.90;;
13356;SDS011;6747;56.456;-3.120;2024-01-27T05:03:07;9.13;;;2.67;;
13356;SDS011;6747;56.456;-3.120;2024-01-27T05:05:40;5.15;;;1.80;;
13356;SDS011;6747;56.456;-3.120;2024-01-27T05:08:08;4.93;;;1.92;;
13356;SDS011;6747;56.456;-3.120;2024-01-27T05:10:35;4.47;;;2.00;;
13356;SDS011;6747;56.456;-3.120;2024-01-27T05:13:03;7.97;;;2.00;;
13356;SDS011;6747;56.456;-3.120;2024-01-27T05:15:31;7.25;;;1.92;;
13356;SDS011;6747;56.456;-3.120;2024-01-27T05:18:00;5.53;;;2.30;;
13356;SDS011;6747;56.456;-3.120;2024-01-27T05:20:27;5.55;;;2.45;;
13356;SDS011;6747;56.456;-3.120;2024-01-27T05:22:55;3.53;;;2.08;;
13356;SDS011;6747;56.456;-3.120;2024-01-27T05:25:22;6.95;;;2.30;;
13356;SDS011;6747;56.456;-3.120;2024-01-27T05:27:50;4.65;;;2.28;;
13356;SDS011;6747;56.456;-3.120;2024-01-27T05:30:17;5.43;;;2.30;;
13356;SDS011;6747;56.456;-3.120;2024-01-27T05:32:44;5.60;;;2.30;;
13356;SDS011;6747;56.456;-3.120;2024-01-27T05:35:14;5.03;;;2.53;;
13356;SDS011;6747;56.456;-3.120;2024-01-27T05:37:41;7.50;;;1.90;;
13356;SDS011;6747;56.456;-3.120;2024-01-27T05:40:09;9.60;;;2.22;;
13356;SDS011;6747;56.456;-3.120;2024-01-27T05:42:36;3.95;;;2.25;;
13356;SDS011;6747;56.456;-3.120;2024-01-27T05:45:06;4.72;;;1.90;;
13356;SDS011;6747;56.456;-3.120;2024-01-27T05:47:34;7.57;;;2.30;;
13356;SDS011;6747;56.456;-3.120;2024-01-27T05:50:01;6.00;;;2.20;;
13356;SDS011;6747;56.456;-3.120;2024-01-27T05:52:31;4.57;;;2.20;;
13356;SDS011;6747;56.456;-3.120;2024-01-27T05:54:58;4.45;;;2.22;;
13356;SDS011;6747;56.456;-3.120;2024-01-27T05:57:26;4.50;;;1.85;;
13356;SDS011;6747;56.456;-3.120;2024-01-27T05:59:54;5.20;;;2.20;;
13356;SDS011;6747;56.456;-3.120;2024-01-27T06:02:21;5.30;;;1.88;;
13356;SDS011;6747;56.456;-3.120;2024-01-27T06:04:49;4.38;;;1.63;;
13356;SDS011;6747;56.456;-3.120;2024-01-27T06:07:16;4.28;;;1.77;;
13356;SDS011;6747;56.456;-3.120;2024-01-27T06:09:45;5.30;;;2.17;;
13356;SDS011;6747;56.456;-3.120;2024-01-27T06:12:13;5.47;;;2.13;;
13356;SDS011;6747;56.456;-3.120;2024-01-27T06:14:40;8.20;;;2.25;;
13356;SDS011;6747;56.456;-3.120;2024-01-27T06:17:08;5.85;;;2.28;;
13356;SDS011;6747;56.456;-3.120;2024-01-27T06:19:35;3.75;;;2.35;;
13356;SDS011;6747;56.456;-3.120;2024-01-27T06:22:03;8.30;;;2.30;;
13356;SDS011;6747;56.456;-3.120;2024-01-27T06:24:30;4.05;;;2.22;;
13356;SDS011;6747;56.456;-3.120;2024-01-27T06:27:00;5.28;;;1.90;;
13356;SDS011;6747;56.456;-3.120;2024-01-27T06:29:27;8.75;;;2.17;;
13356;SDS011;6747;56.456;-3.120;2024-01-27T06:31:55;5.18;;;2.05;;
13356;SDS011;6747;56.456;-3.120;2024-01-27T06:34:22;4.80;;;2.20;;
13356;SDS011;6747;56.456;-3.120;2024-01-27T06:36:49;4.70;;;1.55;;
13356;SDS011;6747;56.456;-3.120;2024-01-27T06:39:17;7.43;;;2.20;;
13356;SDS011;6747;56.456;-3.120;2024-01-27T06:41:46;3.83;;;1.60;;
13356;SDS011;6747;56.456;-3.120;2024-01-27T06:44:15;4.35;;;1.70;;
13356;SDS011;6747;56.456;-3.120;2024-01-27T06:46:43;8.10;;;1.77;;
13356;SDS011;6747;56.456;-3.120;2024-01-27T06:49:15;3.25;;;1.83;;
13356;SDS011;6747;56.456;-3.120;2024-01-27T06:51:43;3.35;;;1.90;;
13356;SDS011;6747;56.456;-3.120;2024-01-27T06:54:10;7.65;;;2.08;;
13356;SDS011;6747;56.456;-3.120;2024-01-27T06:56:38;4.45;;;1.80;;
13356;SDS011;6747;56.456;-3.120;2024-01-27T06:59:05;6.63;;;2.17;;
13356;SDS011;6747;56.456;-3.120;2024-01-27T07:01:34;3.85;;;2.00;;
13356;SDS011;6747;56.456;-3.120;2024-01-27T07:04:02;5.05;;;1.75;;
13356;SDS011;6747;56.456;-3.120;2024-01-27T07:06:30;6.43;;;1.92;;
13356;SDS011;6747;56.456;-3.120;2024-01-27T07:08:58;5.68;;;2.35;;
13356;SDS011;6747;56.456;-3.120;2024-01-27T07:11:25;5.85;;;2.22;;
13356;SDS011;6747;56.456;-3.120;2024-01-27T07:13:52;4.78;;;1.67;;
13356;SDS011;6747;56.456;-3.120;2024-01-27T07:16:21;5.43;;;1.92;;
13356;SDS011;6747;56.456;-3.120;2024-01-27T07:18:50;2.90;;;1.60;;
13356;SDS011;6747;56.456;-3.120;2024-01-27T07:21:17;4.03;;;1.85;;
13356;SDS011;6747;56.456;-3.120;2024-01-27T07:23:45;3.55;;;1.83;;
13356;SDS011;6747;56.456;-3.120;2024-01-27T07:26:12;2.55;;;1.73;;
13356;SDS011;6747;56.456;-3.120;2024-01-27T07:28:40;3.92;;;1.67;;
13356;SDS011;6747;56.456;-3.120;2024-01-27T07:31:08;5.40;;;2.03;;
13356;SDS011;6747;56.456;-3.120;2024-01-27T07:33:36;5.57;;;1.88;;
13356;SDS011;6747;56.456;-3.120;2024-01-27T07:36:06;4.80;;;1.40;;
13356;SDS011;6747;56.456;-3.120;2024-01-27T07:38:33;5.93;;;1.80;;
13356;SDS011;6747;56.456;-3.120;2024-01-27T07:41:01;3.25;;;1.30;;
13356;SDS011;6747;56.456;-3.120;2024-01-27T07:43:28;3.83;;;1.50;;
13356;SDS011;6747;56.456;-3.120;2024-01-27T07:45:56;4.78;;;1.67;;
13356;SDS011;6747;56.456;-3.120;2024-01-27T07:48:24;3.80;;;1.10;;
13356;SDS011;6747;56.456;-3.120;2024-01-27T07:50:52;2.92;;;1.30;;
13356;SDS011;6747;56.456;-3.120;2024-01-27T07:53:23;4.32;;;1.15;;
13356;SDS011;6747;56.456;-3.120;2024-01-27T07:55:50;2.75;;;1.00;;
13356;SDS011;6747;56.456;-3.120;2024-01-27T07:58:19;1.98;;;1.00;;
13356;SDS011;6747;56.456;-3.120;2024-01-27T08:00:46;3.00;;;1.10;;
13356;SDS011;6747;56.456;-3.120;2024-01-27T08:03:14;4.20;;;1.20;;
13356;SDS011;6747;56.456;-3.120;2024-01-27T08:05:41;3.08;;;0.90;;
13356;SDS011;6747;56.456;-3.120;2024-01-27T08:08:09;4.90;;;1.10;;
13356;SDS011;6747;56.456;-3.120;2024-01-27T08:10:40;1.25;;;0.60;;
13356;SDS011;6747;56.456;-3.120;2024-01-27T08:13:07;3.33;;;1.13;;
13356;SDS011;6747;56.456;-3.120;2024-01-27T08:15:35;1.55;;;1.08;;
13356;SDS011;6747;56.456;-3.120;2024-01-27T08:18:02;2.38;;;1.13;;
13356;SDS011;6747;56.456;-3.120;2024-01-27T08:20:30;4.72;;;0.88;;
13356;SDS011;6747;56.456;-3.120;2024-01-27T08:22:57;2.15;;;0.88;;
13356;SDS011;6747;56.456;-3.120;2024-01-27T08:25:25;3.08;;;0.98;;
13356;SDS011;6747;56.456;-3.120;2024-01-27T08:27:54;2.50;;;0.90;;
13356;SDS011;6747;56.456;-3.120;2024-01-27T08:30:21;2.17;;;0.68;;
13356;SDS011;6747;56.456;-3.120;2024-01-27T08:32:49;2.75;;;1.48;;
13356;SDS011;6747;56.456;-3.120;2024-01-27T08:35:16;1.85;;;1.00;;
13356;SDS011;6747;56.456;-3.120;2024-01-27T08:37:44;1.13;;;0.88;;
13356;SDS011;6747;56.456;-3.120;2024-01-27T08:40:11;1.67;;;0.73;;
13356;SDS011;6747;56.456;-3.120;2024-01-27T08:42:39;1.55;;;0.70;;
13356;SDS011;6747;56.456;-3.120;2024-01-27T08:45:09;1.63;;;0.70;;
13356;SDS011;6747;56.456;-3.120;2024-01-27T08:47:36;2.60;;;0.80;;
13356;SDS011;6747;56.456;-3.120;2024-01-27T08:50:04;0.73;;;0.50;;
13356;SDS011;6747;56.456;-3.120;2024-01-27T08:52:32;1.75;;;0.70;;
13356;SDS011;6747;56.456;-3.120;2024-01-27T08:54:59;1.52;;;0.85;;
13356;SDS011;6747;56.456;-3.120;2024-01-27T08:57:27;1.38;;;0.77;;
13356;SDS011;6747;56.456;-3.120;2024-01-27T08:59:54;3.40;;;0.88;;
13356;SDS011;6747;56.456;-3.120;2024-01-27T09:02:24;1.60;;;0.88;;
13356;SDS011;6747;56.456;-3.120;2024-01-27T09:04:51;2.97;;;0.90;;
13356;SDS011;6747;56.456;-3.120;2024-01-27T09:07:20;2.95;;;0.60;;
13356;SDS011;6747;56.456;-3.120;2024-01-27T09:09:48;4.03;;;0.80;;
13356;SDS011;6747;56.456;-3.120;2024-01-27T09:12:15;1.98;;;0.85;;
13356;SDS011;6747;56.456;-3.120;2024-01-27T09:14:43;3.08;;;0.73;;
13356;SDS011;6747;56.456;-3.120;2024-01-27T09:17:10;3.15;;;0.63;;
13356;SDS011;6747;56.456;-3.120;2024-01-27T09:19:39;2.10;;;0.90;;
13356;SDS011;6747;56.456;-3.120;2024-01-27T09:22:07;2.53;;;0.70;;
13356;SDS011;6747;56.456;-3.120;2024-01-27T09:24:35;1.48;;;0.80;;
13356;SDS011;6747;56.456;-3.120;2024-01-27T09:27:03;3.10;;;1.05;;
13356;SDS011;6747;56.456;-3.120;2024-01-27T09:29:30;2.30;;;0.40;;
13356;SDS011;6747;56.456;-3.120;2024-01-27T09:31:58;4.55;;;1.20;;
13356;SDS011;6747;56.456;-3.120;2024-01-27T09:34:25;2.58;;;1.00;;
13356;SDS011;6747;56.456;-3.120;2024-01-27T09:36:55;1.40;;;0.70;;
13356;SDS011;6747;56.456;-3.120;2024-01-27T09:39:22;1.90;;;0.70;;
13356;SDS011;6747;56.456;-3.120;2024-01-27T09:41:50;2.97;;;1.10;;
13356;SDS011;6747;56.456;-3.120;2024-01-27T09:44:18;1.20;;;0.88;;
13356;SDS011;6747;56.456;-3.120;2024-01-27T09:46:46;2.97;;;1.02;;
13356;SDS011;6747;56.456;-3.120;2024-01-27T09:49:14;2.13;;;0.82;;
13356;SDS011;6747;56.456;-3.120;2024-01-27T09:51:41;1.88;;;0.68;;
13356;SDS011;6747;56.456;-3.120;2024-01-27T09:54:10;4.57;;;1.20;;
13356;SDS011;6747;56.456;-3.120;2024-01-27T09:56:38;3.28;;;0.93;;
13356;SDS011;6747;56.456;-3.120;2024-01-27T09:59:05;3.42;;;0.90;;
13356;SDS011;6747;56.456;-3.120;2024-01-27T10:01:33;2.10;;;0.90;;
13356;SDS011;6747;56.456;-3.120;2024-01-27T10:04:01;7.22;;;1.10;;
13356;SDS011;6747;56.456;-3.120;2024-01-27T10:06:28;3.40;;;1.00;;
13356;SDS011;6747;56.456;-3.120;2024-01-27T10:08:56;1.98;;;0.90;;
13356;SDS011;6747;56.456;-3.120;2024-01-27T10:11:25;2.75;;;1.00;;
13356;SDS011;6747;56.456;-3.120;2024-01-27T10:13:54;1.98;;;0.80;;
13356;SDS011;6747;56.456;-3.120;2024-01-27T10:16:22;4.03;;;1.60;;
13356;SDS011;6747;56.456;-3.120;2024-01-27T10:18:58;3.88;;;1.08;;
13356;SDS011;6747;56.456;-3.120;2024-01-27T10:21:26;2.60;;;1.15;;
13356;SDS011;6747;56.456;-3.120;2024-01-27T10:23:54;2.58;;;1.00;;
13356;SDS011;6747;56.456;-3.120;2024-01-27T10:26:21;1.83;;;0.70;;
13356;SDS011;6747;56.456;-3.120;2024-01-27T10:28:54;1.60;;;1.00;;
13356;SDS011;6747;56.456;-3.120;2024-01-27T10:31:25;3.42;;;1.15;;
13356;SDS011;6747;56.456;-3.120;2024-01-27T10:33:53;2.13;;;1.15;;
13356;SDS011;6747;56.456;-3.120;2024-01-27T10:36:21;3.45;;;1.23;;
13356;SDS011;6747;56.456;-3.120;2024-01-27T10:38:49;2.97;;;1.27;;
13356;SDS011;6747;56.456;-3.120;2024-01-27T10:41:18;4.75;;;1.02;;
13356;SDS011;6747;56.456;-3.120;2024-01-27T10:43:49;2.92;;;1.23;;
13356;SDS011;6747;56.456;-3.120;2024-01-27T10:46:20;1.90;;;0.90;;
13356;SDS011;6747;56.456;-3.120;2024-01-27T10:48:49;4.18;;;1.45;;
13356;SDS011;6747;56.456;-3.120;2024-01-27T10:51:18;3.28;;;1.05;;
13356;SDS011;6747;56.456;-3.120;2024-01-27T10:53:49;2.25;;;1.00;;
13356;SDS011;6747;56.456;-3.120;2024-01-27T10:56:19;4.15;;;1.10;;
13356;SDS011;6747;56.456;-3.120;2024-01-27T10:58:47;2.88;;;1.00;;
13356;SDS011;6747;56.456;-3.120;2024-01-27T11:01:15;2.58;;;1.00;;
13356;SDS011;6747;56.456;-3.120;2024-01-27T11:03:46;2.65;;;1.00;;
13356;SDS011;6747;56.456;-3.120;2024-01-27T11:06:14;3.60;;;0.93;;
13356;SDS011;6747;56.456;-3.120;2024-01-27T11:08:42;4.65;;;1.33;;
13356;SDS011;6747;56.456;-3.120;2024-01-27T11:11:09;5.53;;;1.50;;
13356;SDS011;6747;56.456;-3.120;2024-01-27T11:13:37;4.53;;;1.10;;
13356;SDS011;6747;56.456;-3.120;2024-01-27T11:16:05;3.95;;;1.40;;
13356;SDS011;6747;56.456;-3.120;2024-01-27T11:18:32;3.38;;;1.02;;
13356;SDS011;6747;56.456;-3.120;2024-01-27T11:21:01;5.20;;;1.50;;
13356;SDS011;6747;56.456;-3.120;2024-01-27T11:23:31;4.05;;;1.52;;
13356;SDS011;6747;56.456;-3.120;2024-01-27T11:26:03;5.00;;;1.20;;
13356;SDS011;6747;56.456;-3.120;2024-01-27T11:28:30;4.72;;;1.30;;
13356;SDS011;6747;56.456;-3.120;2024-01-27T11:30:58;2.13;;;1.27;;
13356;SDS011;6747;56.456;-3.120;2024-01-27T11:33:25;5.90;;;1.50;;
13356;SDS011;6747;56.456;-3.120;2024-01-27T11:35:59;4.68;;;1.20;;
13356;SDS011;6747;56.456;-3.120;2024-01-27T11:38:29;2.70;;;1.30;;
13356;SDS011;6747;56.456;-3.120;2024-01-27T11:40:57;5.43;;;2.17;;
13356;SDS011;6747;56.456;-3.120;2024-01-27T11:43:24;6.00;;;1.38;;
13356;SDS011;6747;56.456;-3.120;2024-01-27T11:45:55;7.05;;;1.67;;
13356;SDS011;6747;56.456;-3.120;2024-01-27T11:48:23;4.93;;;1.48;;
13356;SDS011;6747;56.456;-3.120;2024-01-27T11:51:01;6.88;;;1.50;;
13356;SDS011;6747;56.456;-3.120;2024-01-27T11:53:30;7.28;;;1.58;;
13356;SDS011;6747;56.456;-3.120;2024-01-27T11:55:57;8.02;;;1.60;;
13356;SDS011;6747;56.456;-3.120;2024-01-27T11:58:26;6.82;;;1.30;;
13356;SDS011;6747;56.456;-3.120;2024-01-27T12:00:55;10.90;;;2.00;;
13356;SDS011;6747;56.456;-3.120;2024-01-27T12:03:23;10.07;;;2.13;;
13356;SDS011;6747;56.456;-3.120;2024-01-27T12:05:51;8.00;;;2.30;;
13356;SDS011;6747;56.456;-3.120;2024-01-27T12:08:18;6.18;;;1.38;;
13356;SDS011;6747;56.456;-3.120;2024-01-27T12:10:47;10.63;;;1.73;;
13356;SDS011;6747;56.456;-3.120;2024-01-27T12:13:15;6.35;;;1.88;;
13356;SDS011;6747;56.456;-3.120;2024-01-27T12:15:43;6.15;;;1.55;;
13356;SDS011;6747;56.456;-3.120;2024-01-27T12:18:10;5.70;;;1.75;;
13356;SDS011;6747;56.456;-3.120;2024-01-27T12:20:38;8.10;;;2.30;;
13356;SDS011;6747;56.456;-3.120;2024-01-27T12:23:06;7.43;;;1.75;;
13356;SDS011;6747;56.456;-3.120;2024-01-27T12:25:34;4.85;;;1.90;;
13356;SDS011;6747;56.456;-3.120;2024-01-27T12:28:03;5.28;;;1.88;;
13356;SDS011;6747;56.456;-3.120;2024-01-27T12:30:33;4.68;;;1.67;;
13356;SDS011;6747;56.456;-3.120;2024-01-27T12:33:00;5.57;;;1.65;;
13356;SDS011;6747;56.456;-3.120;2024-01-27T12:35:28;9.38;;;1.90;;
13356;SDS011;6747;56.456;-3.120;2024-01-27T12:37:56;7.40;;;2.17;;
13356;SDS011;6747;56.456;-3.120;2024-01-27T12:40:27;9.15;;;1.65;;
13356;SDS011;6747;56.456;-3.120;2024-01-27T12:42:54;6.05;;;1.95;;
13356;SDS011;6747;56.456;-3.120;2024-01-27T12:45:23;5.95;;;1.38;;
13356;SDS011;6747;56.456;-3.120;2024-01-27T12:47:51;9.18;;;1.90;;
13356;SDS011;6747;56.456;-3.120;2024-01-27T12:50:18;9.57;;;2.22;;
13356;SDS011;6747;56.456;-3.120;2024-01-27T12:52:46;5.78;;;1.63;;
13356;SDS011;6747;56.456;-3.120;2024-01-27T12:55:13;6.15;;;1.38;;
13356;SDS011;6747;56.456;-3.120;2024-01-27T12:57:41;5.30;;;1.58;;
13356;SDS011;6747;56.456;-3.120;2024-01-27T13:00:09;4.03;;;1.58;;
13356;SDS011;6747;56.456;-3.120;2024-01-27T13:02:39;8.23;;;1.85;;
13356;SDS011;6747;56.456;-3.120;2024-01-27T13:05:06;6.78;;;1.90;;
13356;SDS011;6747;56.456;-3.120;2024-01-27T13:07:34;6.20;;;1.73;;
13356;SDS011;6747;56.456;-3.120;2024-01-27T13:10:02;7.05;;;1.92;;
13356;SDS011;6747;56.456;-3.120;2024-01-27T13:12:30;5.38;;;1.42;;
13356;SDS011;6747;56.456;-3.120;2024-01-27T13:14:58;4.47;;;1.40;;
13356;SDS011;6747;56.456;-3.120;2024-01-27T13:17:25;5.28;;;1.90;;
13356;SDS011;6747;56.456;-3.120;2024-01-27T13:19:54;3.45;;;1.30;;
13356;SDS011;6747;56.456;-3.120;2024-01-27T13:22:21;7.85;;;2.15;;
13356;SDS011;6747;56.456;-3.120;2024-01-27T13:24:50;3.60;;;1.80;;
13356;SDS011;6747;56.456;-3.120;2024-01-27T13:27:17;4.25;;;1.70;;
13356;SDS011;6747;56.456;-3.120;2024-01-27T13:29:45;5.63;;;1.67;;
13356;SDS011;6747;56.456;-3.120;2024-01-27T13:32:12;3.13;;;1.50;;
13356;SDS011;6747;56.456;-3.120;2024-01-27T13:34:40;8.25;;;2.03;;
13356;SDS011;6747;56.456;-3.120;2024-01-27T13:37:09;8.80;;;2.20;;
13356;SDS011;6747;56.456;-3.120;2024-01-27T13:39:37;7.47;;;2.10;;
13356;SDS011;6747;56.456;-3.120;2024-01-27T13:42:05;4.90;;;1.90;;
13356;SDS011;6747;56.456;-3.120;2024-01-27T13:44:32;6.55;;;2.17;;
13356;SDS011;6747;56.456;-3.120;2024-01-27T13:47:01;9.73;;;2.15;;
13356;SDS011;6747;56.456;-3.120;2024-01-27T13:49:29;6.85;;;1.58;;
13356;SDS011;6747;56.456;-3.120;2024-01-27T13:51:57;4.07;;;1.42;;
13356;SDS011;6747;56.456;-3.120;2024-01-27T13:54:26;7.70;;;1.90;;
13356;SDS011;6747;56.456;-3.120;2024-01-27T13:56:54;7.18;;;1.70;;
13356;SDS011;6747;56.456;-3.120;2024-01-27T13:59:21;10.15;;;1.75;;
13356;SDS011;6747;56.456;-3.120;2024-01-27T14:01:49;6.70;;;2.25;;
13356;SDS011;6747;56.456;-3.120;2024-01-27T14:04:18;6.60;;;2.00;;
13356;SDS011;6747;56.456;-3.120;2024-01-27T14:06:51;9.00;;;1.63;;
13356;SDS011;6747;56.456;-3.120;2024-01-27T14:09:21;8.98;;;2.42;;
13356;SDS011;6747;56.456;-3.120;2024-01-27T14:11:51;9.50;;;2.10;;
13356;SDS011;6747;56.456;-3.120;2024-01-27T14:14:18;8.48;;;2.28;;
13356;SDS011;6747;56.456;-3.120;2024-01-27T14:16:46;9.05;;;2.58;;
13356;SDS011;6747;56.456;-3.120;2024-01-27T14:19:12;5.68;;;2.50;;
13356;SDS011;6747;56.456;-3.120;2024-01-27T14:21:40;8.00;;;2.20;;
13356;SDS011;6747;56.456;-3.120;2024-01-27T14:24:07;5.47;;;1.48;;
13356;SDS011;6747;56.456;-3.120;2024-01-27T14:26:35;9.43;;;2.30;;
13356;SDS011;6747;56.456;-3.120;2024-01-27T14:29:04;8.15;;;1.90;;
13356;SDS011;6747;56.456;-3.120;2024-01-27T14:31:32;7.20;;;1.92;;
13356;SDS011;6747;56.456;-3.120;2024-01-27T14:33:59;7.88;;;1.88;;
13356;SDS011;6747;56.456;-3.120;2024-01-27T14:36:27;6.88;;;1.83;;
13356;SDS011;6747;56.456;-3.120;2024-01-27T14:38:54;7.32;;;1.77;;
13356;SDS011;6747;56.456;-3.120;2024-01-27T14:41:22;8.80;;;1.75;;
13356;SDS011;6747;56.456;-3.120;2024-01-27T14:43:50;8.38;;;2.00;;
13356;SDS011;6747;56.456;-3.120;2024-01-27T14:46:19;3.35;;;1.60;;
13356;SDS011;6747;56.456;-3.120;2024-01-27T14:48:46;7.18;;;2.10;;
13356;SDS011;6747;56.456;-3.120;2024-01-27T14:51:14;7.85;;;2.05;;
13356;SDS011;6747;56.456;-3.120;2024-01-27T14:53:41;11.63;;;5.15;;